Time;durP1;ratioP1;P1;durP2;ratioP2;P2;SDS_P1;SDS_P2;PMS_P1;PMS_P2;Temp;Humidity;BMP_temperature;BMP_pressure;BME280_temperature;BME280_humidity;BME280_pressure;Samples;Min_cycle;Max_cycle;Signal;HPM_P1;HPM_P2
2021/03/31 00:02:50;;;;;;;10.60;7.40;;;12.70;59.00;;;;;;10495458;28;20196;-80
2021/03/31 00:07:52;;;;;;;8.77;7.23;;;12.60;58.90;;;;;;10496636;28;20708;-79
2021/03/31 00:12:54;;;;;;;9.90;7.80;;;12.60;59.40;;;;;;10478399;28;20246;-80
2021/03/31 00:17:56;;;;;;;11.47;7.60;;;12.50;59.80;;;;;;10495875;28;20307;-80
2021/03/31 00:22:58;;;;;;;12.13;5.80;;;12.40;59.90;;;;;;10478552;28;20358;-80
2021/03/31 00:28:00;;;;;;;9.30;7.97;;;12.40;59.90;;;;;;10496314;28;20631;-80
2021/03/31 00:33:03;;;;;;;10.60;7.97;;;12.40;60.00;;;;;;10499669;28;20201;-80
2021/03/31 00:38:06;;;;;;;9.30;7.57;;;12.30;60.40;;;;;;10483417;28;20315;-80
2021/03/31 00:43:07;;;;;;;8.60;7.47;;;12.20;60.30;;;;;;10491656;28;20196;-80
2021/03/31 00:48:13;;;;;;;8.70;7.63;;;12.20;60.30;;;;;;10492224;28;20255;-79
2021/03/31 00:53:18;;;;;;;7.87;7.07;;;12.20;60.60;;;;;;10494065;28;20254;-79
2021/03/31 00:58:19;;;;;;;10.57;8.33;;;12.10;60.50;;;;;;10512486;28;20270;-80
2021/03/31 01:03:22;;;;;;;11.20;8.50;;;12.10;60.70;;;;;;10470791;28;20668;-80
2021/03/31 01:08:24;;;;;;;10.27;7.00;;;12.00;60.60;;;;;;10470185;28;20225;-79
2021/03/31 01:13:35;;;;;;;9.87;6.80;;;12.00;60.50;;;;;;10484912;28;20204;-80
2021/03/31 01:18:45;;;;;;;10.50;7.43;;;12.00;61.00;;;;;;10486070;28;20251;-80
2021/03/31 01:24:08;;;;;;;8.40;7.50;;;11.90;61.30;;;;;;10504033;28;20632;-80
2021/03/31 01:29:33;;;;;;;8.43;7.17;;;11.90;61.60;;;;;;10481835;28;20659;-81
2021/03/31 01:34:42;;;;;;;9.00;8.00;;;11.80;61.80;;;;;;10491025;28;20200;-80
2021/03/31 01:39:46;;;;;;;7.43;6.70;;;11.80;61.70;;;;;;10480443;28;20269;-80
2021/03/31 01:44:51;;;;;;;10.33;8.13;;;11.80;61.20;;;;;;10461502;28;20724;-80
2021/03/31 01:49:54;;;;;;;10.73;7.87;;;11.70;61.50;;;;;;10480366;28;20265;-80
2021/03/31 01:54:58;;;;;;;10.10;7.70;;;11.70;61.70;;;;;;10498169;28;20608;-79
2021/03/31 02:00:00;;;;;;;11.90;8.47;;;11.70;61.70;;;;;;10497531;28;20240;-80
2021/03/31 02:05:08;;;;;;;9.70;7.60;;;11.70;62.00;;;;;;10471200;28;20584;-80
2021/03/31 02:10:12;;;;;;;8.10;7.17;;;11.70;61.30;;;;;;10479719;28;20228;-80
2021/03/31 02:15:18;;;;;;;9.27;7.70;;;11.60;62.20;;;;;;10497883;28;20204;-80
2021/03/31 02:20:21;;;;;;;9.53;7.63;;;11.60;62.40;;;;;;10462521;28;20212;-79
2021/03/31 02:25:23;;;;;;;8.77;7.30;;;11.60;62.50;;;;;;10496459;28;20207;-80
2021/03/31 02:30:27;;;;;;;8.50;7.40;;;11.50;62.50;;;;;;10461630;28;20220;-80
2021/03/31 02:35:32;;;;;;;10.20;7.27;;;11.40;62.40;;;;;;10495490;28;20205;-80
2021/03/31 02:40:36;;;;;;;8.60;7.50;;;11.40;62.50;;;;;;10486636;22;20684;-78
2021/03/31 02:45:38;;;;;;;7.50;6.80;;;11.40;62.70;;;;;;10474634;28;20205;-78
2021/03/31 02:50:41;;;;;;;9.83;8.07;;;11.30;62.70;;;;;;10430780;28;20606;-78
2021/03/31 02:55:42;;;;;;;11.83;8.33;;;11.30;63.50;;;;;;10415465;28;20201;-78
2021/03/31 03:00:44;;;;;;;10.83;7.97;;;11.20;63.20;;;;;;10433781;28;20362;-77
2021/03/31 03:05:47;;;;;;;13.03;8.40;;;11.20;63.20;;;;;;10416533;28;20551;-77
2021/03/31 03:10:49;;;;;;;10.17;7.60;;;11.20;63.10;;;;;;10432817;28;20217;-78
2021/03/31 03:15:51;;;;;;;9.40;8.00;;;11.20;63.50;;;;;;10433205;28;20204;-78
2021/03/31 03:20:54;;;;;;;9.97;7.87;;;11.10;63.10;;;;;;10433044;28;20340;-78
2021/03/31 03:25:59;;;;;;;14.00;9.27;;;11.10;63.50;;;;;;10449916;28;20291;-79
2021/03/31 03:31:01;;;;;;;9.57;8.20;;;11.10;63.70;;;;;;10432250;28;20593;-77
2021/03/31 03:36:05;;;;;;;10.03;7.43;;;11.10;63.70;;;;;;10450073;28;20251;-78
2021/03/31 03:41:08;;;;;;;11.00;9.10;;;11.00;64.20;;;;;;10414146;28;20240;-78
2021/03/31 03:46:13;;;;;;;9.63;7.87;;;11.00;63.90;;;;;;10450357;28;20216;-79
2021/03/31 03:51:16;;;;;;;9.20;7.73;;;10.90;64.00;;;;;;10432010;28;20770;-80
2021/03/31 03:56:18;;;;;;;10.70;9.00;;;10.90;64.80;;;;;;10432058;28;20251;-78
2021/03/31 04:01:19;;;;;;;11.13;9.33;;;10.80;64.60;;;;;;10445447;28;20258;-78
2021/03/31 04:06:22;;;;;;;10.73;8.40;;;10.80;64.90;;;;;;10446980;28;20753;-78
2021/03/31 04:11:24;;;;;;;10.17;8.40;;;10.80;65.00;;;;;;10449581;28;20220;-77
2021/03/31 04:16:28;;;;;;;14.57;8.57;;;10.70;65.20;;;;;;10457333;28;20596;-78
2021/03/31 04:21:34;;;;;;;10.47;8.60;;;10.70;65.60;;;;;;10439017;28;20296;-78
2021/03/31 04:26:37;;;;;;;11.50;8.60;;;10.70;65.90;;;;;;10458195;28;20209;-78
2021/03/31 04:31:40;;;;;;;15.37;8.80;;;10.60;66.20;;;;;;10454057;28;20206;-78
2021/03/31 04:36:42;;;;;;;11.00;9.50;;;10.60;66.20;;;;;;10423759;28;20285;-78
2021/03/31 04:41:44;;;;;;;9.90;8.00;;;10.60;66.50;;;;;;10440962;28;20263;-78
2021/03/31 04:46:46;;;;;;;10.47;8.30;;;10.60;66.30;;;;;;10417574;28;20270;-78
2021/03/31 04:51:48;;;;;;;13.10;8.70;;;10.60;66.10;;;;;;10455370;28;20276;-79
2021/03/31 04:56:50;;;;;;;11.07;8.70;;;10.60;66.80;;;;;;10425869;28;20197;-78
2021/03/31 05:01:51;;;;;;;9.70;8.70;;;10.60;66.90;;;;;;10444463;28;20292;-78
2021/03/31 05:06:54;;;;;;;11.13;8.07;;;10.60;66.60;;;;;;10441570;28;20330;-78
2021/03/31 05:11:55;;;;;;;13.23;8.43;;;10.60;66.90;;;;;;10401848;28;20209;-77
2021/03/31 05:16:57;;;;;;;11.03;9.50;;;10.60;67.00;;;;;;10404425;28;20245;-77
2021/03/31 05:21:59;;;;;;;13.33;9.53;;;10.50;66.90;;;;;;10380831;28;20210;-78
2021/03/31 05:27:04;;;;;;;11.33;8.73;;;10.50;67.20;;;;;;10394170;28;20223;-77
2021/03/31 05:32:07;;;;;;;9.90;8.27;;;10.50;67.30;;;;;;10394628;28;20268;-78
2021/03/31 05:37:10;;;;;;;10.53;8.40;;;10.50;67.80;;;;;;10406597;28;20306;-78
2021/03/31 05:42:12;;;;;;;10.63;9.23;;;10.50;67.30;;;;;;10417056;28;20661;-77
2021/03/31 05:47:19;;;;;;;14.20;8.63;;;10.50;68.20;;;;;;10416330;28;20294;-77
2021/03/31 05:52:23;;;;;;;13.83;8.90;;;10.60;68.20;;;;;;10450736;28;20189;-79
2021/03/31 05:57:26;;;;;;;11.40;8.60;;;10.60;68.40;;;;;;10453106;28;20768;-78
2021/03/31 06:02:29;;;;;;;16.00;8.63;;;10.60;68.20;;;;;;10436069;28;20225;-78
2021/03/31 06:07:31;;;;;;;14.73;8.57;;;10.60;68.50;;;;;;10420004;28;20230;-78
2021/03/31 06:12:35;;;;;;;14.33;8.80;;;10.60;68.20;;;;;;10438955;28;20577;-77
2021/03/31 06:17:45;;;;;;;10.60;8.27;;;10.70;68.70;;;;;;10437364;28;20220;-78
2021/03/31 06:23:08;;;;;;;10.13;8.57;;;10.70;68.50;;;;;;10435119;28;20283;-77
2021/03/31 06:28:10;;;;;;;11.83;8.20;;;10.80;68.40;;;;;;10434129;28;20303;-78
2021/03/31 06:33:12;;;;;;;12.07;9.20;;;10.90;68.50;;;;;;10452163;28;20197;-78
2021/03/31 06:38:16;;;;;;;11.00;8.70;;;11.00;69.60;;;;;;10408207;28;20229;-78
2021/03/31 06:43:22;;;;;;;13.60;8.97;;;11.10;67.90;;;;;;10409570;28;20205;-78
2021/03/31 06:48:26;;;;;;;9.60;7.83;;;11.30;68.30;;;;;;10422059;28;20693;-76
2021/03/31 06:53:31;;;;;;;15.30;8.20;;;11.40;67.90;;;;;;10450161;28;20213;-77
2021/03/31 06:58:33;;;;;;;10.67;8.40;;;11.70;67.40;;;;;;10416873;28;20222;-76
2021/03/31 07:03:35;;;;;;;11.50;8.63;;;11.80;67.10;;;;;;10432916;28;20228;-78
2021/03/31 07:08:38;;;;;;;8.80;7.90;;;12.00;67.70;;;;;;10450768;28;20232;-79
2021/03/31 07:13:40;;;;;;;12.73;9.83;;;12.10;67.00;;;;;;10433108;28;20197;-78
2021/03/31 07:18:42;;;;;;;12.63;8.57;;;12.20;66.60;;;;;;10390793;28;20232;-79
2021/03/31 07:23:47;;;;;;;10.80;9.50;;;12.30;67.10;;;;;;10399607;28;20203;-78
2021/03/31 07:28:50;;;;;;;12.10;9.20;;;12.40;67.10;;;;;;10413321;28;20225;-77
2021/03/31 07:34:19;;;;;;;12.77;9.60;;;12.50;67.40;;;;;;10394198;28;20265;-78
2021/03/31 07:39:26;;;;;;;11.90;10.00;;;12.60;67.10;;;;;;10408803;28;20237;-76
2021/03/31 07:44:30;;;;;;;10.27;8.90;;;12.70;67.70;;;;;;10415538;28;20197;-79
2021/03/31 07:49:34;;;;;;;12.70;10.30;;;12.80;68.20;;;;;;10400352;28;20217;-78
2021/03/31 07:54:36;;;;;;;15.10;9.50;;;12.80;68.70;;;;;;10412927;28;20283;-78
2021/03/31 07:59:40;;;;;;;12.03;9.23;;;12.90;68.90;;;;;;10416198;28;20210;-78
2021/03/31 08:04:42;;;;;;;12.53;10.27;;;13.00;67.60;;;;;;10403419;28;20725;-78
2021/03/31 08:09:44;;;;;;;13.53;8.63;;;13.20;66.70;;;;;;10403736;28;20235;-78
2021/03/31 08:14:47;;;;;;;15.80;9.90;;;13.40;68.90;;;;;;10410321;28;20556;-80
2021/03/31 08:19:51;;;;;;;11.60;9.37;;;13.50;66.80;;;;;;10409158;28;20225;-79
2021/03/31 08:24:56;;;;;;;11.80;9.83;;;13.70;66.50;;;;;;10393405;28;20206;-79
2021/03/31 08:29:59;;;;;;;11.83;9.90;;;13.90;67.30;;;;;;10426611;28;20258;-78
2021/03/31 08:35:02;;;;;;;15.60;10.10;;;14.00;66.10;;;;;;10425761;28;20347;-79
2021/03/31 08:40:07;;;;;;;9.53;7.93;;;14.20;66.30;;;;;;10491100;22;20232;-79
2021/03/31 08:45:10;;;;;;;15.47;9.77;;;14.40;65.10;;;;;;10522280;28;20192;-79
2021/03/31 08:50:12;;;;;;;12.67;8.47;;;14.60;64.60;;;;;;10512354;28;20224;-79
2021/03/31 08:55:15;;;;;;;15.53;8.27;;;14.80;64.50;;;;;;10477722;28;20230;-79
2021/03/31 09:00:17;;;;;;;9.87;8.70;;;15.00;64.20;;;;;;10479158;28;20270;-79
2021/03/31 09:05:19;;;;;;;9.50;7.80;;;15.20;64.90;;;;;;10497368;28;20196;-80
2021/03/31 09:10:22;;;;;;;9.47;7.80;;;15.40;64.40;;;;;;10502203;28;20243;-79
2021/03/31 09:15:23;;;;;;;12.80;8.10;;;15.50;64.50;;;;;;10490227;28;20200;-78
2021/03/31 09:20:25;;;;;;;11.47;8.63;;;15.70;62.80;;;;;;10478857;28;20278;-79
2021/03/31 09:25:28;;;;;;;13.33;10.03;;;16.00;62.90;;;;;;10461107;28;20234;-78
2021/03/31 09:30:29;;;;;;;10.10;8.90;;;16.30;62.90;;;;;;10480861;28;20252;-79
2021/03/31 09:35:31;;;;;;;10.40;8.30;;;16.60;63.10;;;;;;10461924;28;20215;-78
2021/03/31 09:40:37;;;;;;;13.70;9.10;;;16.80;61.90;;;;;;10501080;28;20217;-79
2021/03/31 09:45:39;;;;;;;12.13;8.73;;;17.20;61.50;;;;;;10484684;28;20224;-80
2021/03/31 09:50:41;;;;;;;11.60;8.47;;;17.60;61.00;;;;;;10483996;28;20318;-78
2021/03/31 09:55:44;;;;;;;7.93;6.80;;;18.00;60.60;;;;;;10461612;28;20207;-80
2021/03/31 10:00:49;;;;;;;10.57;8.13;;;18.30;60.20;;;;;;10464169;28;20235;-78
2021/03/31 10:05:51;;;;;;;9.00;7.30;;;18.70;59.40;;;;;;10495346;28;20287;-79
2021/03/31 10:10:57;;;;;;;9.23;7.80;;;19.00;59.20;;;;;;10478272;28;20224;-78
2021/03/31 10:16:00;;;;;;;10.33;7.60;;;19.10;58.70;;;;;;10460619;28;20204;-79
2021/03/31 10:21:04;;;;;;;10.80;8.10;;;19.00;58.80;;;;;;10496586;28;20224;-81
2021/03/31 10:26:21;;;;;;;11.23;8.17;;;18.80;58.60;;;;;;10476482;28;20556;-79
2021/03/31 10:31:28;;;;;;;10.33;8.20;;;18.70;59.50;;;;;;10482787;28;20270;-78
2021/03/31 10:36:46;;;;;;;13.27;8.60;;;18.50;58.80;;;;;;10498880;28;20192;-79
2021/03/31 10:47:17;;;;;;;13.30;7.77;;;18.20;59.60;;;;;;10502746;28;20615;-79
2021/03/31 10:52:21;;;;;;;12.67;10.00;;;18.10;59.70;;;;;;10493979;28;20611;-82
2021/03/31 10:57:24;;;;;;;10.10;7.70;;;18.10;59.30;;;;;;10494647;28;20212;-79
2021/03/31 11:02:25;;;;;;;10.33;8.40;;;18.10;58.00;;;;;;10461111;28;20676;-80
2021/03/31 11:07:27;;;;;;;12.27;8.07;;;18.10;57.30;;;;;;10494450;28;20224;-78
2021/03/31 11:12:30;;;;;;;13.40;9.30;;;18.00;57.80;;;;;;10493582;28;20279;-78
2021/03/31 11:17:37;;;;;;;9.87;7.63;;;18.10;56.00;;;;;;10492367;28;20295;-78
2021/03/31 11:28:00;;;;;;;14.03;8.50;;;18.30;54.60;;;;;;10463740;28;20220;-79
2021/03/31 11:33:01;;;;;;;11.50;9.17;;;18.20;54.90;;;;;;10478183;28;20200;-79
2021/03/31 11:38:04;;;;;;;12.17;8.03;;;18.20;54.00;;;;;;10479132;28;20228;-78
2021/03/31 11:43:07;;;;;;;11.30;8.37;;;18.30;54.00;;;;;;10478462;28;20200;-78
2021/03/31 11:48:09;;;;;;;8.37;7.47;;;18.30;53.60;;;;;;10472767;28;20239;-79
2021/03/31 11:53:12;;;;;;;9.27;7.60;;;18.30;51.40;;;;;;10493816;28;20283;-79
2021/03/31 11:58:15;;;;;;;10.23;7.67;;;18.40;53.00;;;;;;10499347;28;20223;-79
2021/03/31 12:03:18;;;;;;;10.67;7.77;;;18.40;53.40;;;;;;10480940;28;20284;-79
2021/03/31 12:08:20;;;;;;;9.70;7.57;;;18.40;53.70;;;;;;10500112;28;20216;-79
2021/03/31 12:13:22;;;;;;;10.20;8.03;;;18.20;55.10;;;;;;10483709;28;20204;-79
2021/03/31 12:18:24;;;;;;;11.70;7.83;;;18.10;53.00;;;;;;10465450;28;20255;-80
2021/03/31 12:23:26;;;;;;;9.67;7.93;;;18.10;54.50;;;;;;10489102;28;20215;-78
2021/03/31 12:28:28;;;;;;;9.00;7.70;;;18.00;54.60;;;;;;10494382;28;20262;-78
2021/03/31 12:33:30;;;;;;;9.53;7.83;;;17.90;55.30;;;;;;10505516;28;20205;-78
2021/03/31 12:38:32;;;;;;;14.13;8.23;;;17.70;56.40;;;;;;10481596;28;20224;-79
2021/03/31 12:43:34;;;;;;;10.17;8.40;;;17.80;53.20;;;;;;10483131;28;20204;-79
2021/03/31 12:48:36;;;;;;;11.47;9.00;;;17.90;54.80;;;;;;10501086;28;20236;-78
2021/03/31 12:53:41;;;;;;;13.57;8.10;;;18.10;53.30;;;;;;10505872;28;20672;-79
2021/03/31 12:58:43;;;;;;;12.80;8.90;;;18.10;53.60;;;;;;10487982;28;20217;-80
2021/03/31 13:03:45;;;;;;;11.07;8.03;;;18.30;52.40;;;;;;10503710;28;20211;-79
2021/03/31 13:08:50;;;;;;;14.40;8.93;;;18.30;54.20;;;;;;10504367;28;20220;-79
2021/03/31 13:24:56;;;;;;;12.07;8.93;;;18.20;52.30;;;;;;10469748;28;20283;-79
2021/03/31 13:30:25;;;;;;;8.40;6.97;;;18.50;50.60;;;;;;10497195;28;20700;-79
2021/03/31 13:35:30;;;;;;;9.57;7.43;;;18.60;52.70;;;;;;10498090;28;22071;-79
2021/03/31 13:40:32;;;;;;;10.20;7.97;;;18.60;50.20;;;;;;10496572;28;20216;-80
2021/03/31 13:45:34;;;;;;;9.80;7.97;;;18.70;51.30;;;;;;10484649;28;20196;-80
2021/03/31 13:50:36;;;;;;;12.07;7.37;;;18.60;51.60;;;;;;10496308;28;20224;-79
2021/03/31 13:55:39;;;;;;;11.10;8.27;;;18.50;54.50;;;;;;10499225;28;20212;-80
2021/03/31 14:00:42;;;;;;;11.60;8.60;;;18.40;51.90;;;;;;10467048;28;20218;-79
2021/03/31 14:05:44;;;;;;;12.13;8.90;;;18.50;52.80;;;;;;10465024;28;20672;-80
2021/03/31 14:10:45;;;;;;;9.80;7.30;;;18.40;54.80;;;;;;10480026;28;20224;-80
2021/03/31 14:15:48;;;;;;;10.00;8.03;;;18.30;54.60;;;;;;10484148;28;20192;-79
2021/03/31 14:20:50;;;;;;;10.70;7.67;;;18.30;52.90;;;;;;10498413;28;20208;-79
2021/03/31 14:25:51;;;;;;;12.60;7.93;;;18.40;54.00;;;;;;10495804;28;20196;-79
2021/03/31 14:30:54;;;;;;;9.90;7.17;;;18.40;54.40;;;;;;10499410;28;20768;-80
2021/03/31 14:35:56;;;;;;;11.40;7.23;;;18.50;51.50;;;;;;10481308;28;20228;-80
2021/03/31 14:40:57;;;;;;;13.07;8.50;;;18.70;51.80;;;;;;10558061;22;20223;-80
2021/03/31 14:46:00;;;;;;;9.97;7.50;;;19.00;49.10;;;;;;10516972;28;20230;-80
2021/03/31 14:51:01;;;;;;;8.30;6.80;;;19.50;49.90;;;;;;10529737;28;20219;-80
2021/03/31 15:01:24;;;;;;;7.53;6.13;;;20.20;47.70;;;;;;10516539;28;20242;-80
2021/03/31 15:06:26;;;;;;;7.80;6.30;;;20.60;48.20;;;;;;10541174;28;20250;-80
2021/03/31 15:11:27;;;;;;;10.30;6.67;;;20.50;48.80;;;;;;10521491;28;20304;-80
2021/03/31 15:16:30;;;;;;;8.57;5.97;;;20.20;50.90;;;;;;10521422;28;20238;-80
2021/03/31 15:21:37;;;;;;;11.03;6.23;;;19.90;51.20;;;;;;10520704;28;20212;-80
2021/03/31 15:26:39;;;;;;;8.60;6.23;;;19.70;50.60;;;;;;10509289;28;20751;-77
2021/03/31 15:31:41;;;;;;;6.93;6.07;;;19.60;50.30;;;;;;10525656;28;20224;-77
2021/03/31 15:36:43;;;;;;;8.07;6.63;;;19.50;50.60;;;;;;10529213;28;20196;-76
2021/03/31 15:41:45;;;;;;;7.57;6.07;;;19.60;51.00;;;;;;10516841;28;20229;-78
2021/03/31 15:46:52;;;;;;;9.10;6.10;;;19.50;51.90;;;;;;10484188;28;20671;-78
2021/03/31 15:51:53;;;;;;;8.77;6.33;;;19.50;52.70;;;;;;10505262;28;20215;-76
2021/03/31 15:56:55;;;;;;;10.10;7.80;;;19.30;51.80;;;;;;10522088;28;20196;-77
2021/03/31 16:02:00;;;;;;;6.77;5.70;;;19.10;54.50;;;;;;10530982;28;20270;-78
2021/03/31 16:12:22;;;;;;;6.40;5.03;;;18.70;52.90;;;;;;10537710;28;20619;-77
2021/03/31 16:17:24;;;;;;;7.43;5.70;;;18.80;50.40;;;;;;10543959;28;20329;-77
2021/03/31 16:22:27;;;;;;;5.50;5.00;;;19.10;48.90;;;;;;10544210;28;20266;-77
2021/03/31 16:32:59;;;;;;;5.53;4.37;;;19.30;50.40;;;;;;10520358;28;20782;-79
2021/03/31 16:38:01;;;;;;;9.20;4.40;;;19.30;52.50;;;;;;10509586;28;20628;-78
2021/03/31 16:43:03;;;;;;;14.33;4.73;;;19.20;50.10;;;;;;10545524;28;20655;-79
2021/03/31 16:48:06;;;;;;;6.03;4.30;;;19.00;52.80;;;;;;10527714;28;20239;-78
2021/03/31 16:53:33;;;;;;;6.80;5.30;;;18.80;54.40;;;;;;10531944;28;20188;-78
2021/03/31 16:58:35;;;;;;;5.77;4.93;;;18.50;56.00;;;;;;10523462;28;20310;-78
2021/03/31 17:03:38;;;;;;;5.57;4.80;;;18.30;55.00;;;;;;10543022;28;20200;-79
2021/03/31 17:08:40;;;;;;;7.70;5.57;;;18.20;56.30;;;;;;10535675;28;20256;-77
2021/03/31 17:13:41;;;;;;;8.63;5.37;;;18.10;54.00;;;;;;10500163;28;20196;-78
2021/03/31 17:18:44;;;;;;;5.43;4.50;;;18.20;54.60;;;;;;10540865;28;20291;-78
2021/03/31 17:23:47;;;;;;;6.27;4.10;;;18.50;53.80;;;;;;10514460;28;20207;-77
2021/03/31 17:28:49;;;;;;;6.03;3.63;;;18.70;53.90;;;;;;10518164;28;20230;-77
2021/03/31 17:33:52;;;;;;;5.83;3.60;;;19.00;53.30;;;;;;10524212;28;20271;-77
2021/03/31 17:38:53;;;;;;;10.37;4.27;;;19.10;53.50;;;;;;10538368;28;20242;-77
2021/03/31 17:43:55;;;;;;;4.23;3.73;;;19.20;53.20;;;;;;10541916;28;20222;-77
2021/03/31 17:48:59;;;;;;;4.90;3.70;;;19.20;53.20;;;;;;10518160;28;20779;-75
2021/03/31 17:54:01;;;;;;;5.67;4.47;;;19.20;53.10;;;;;;10504571;28;20203;-77
2021/03/31 17:59:02;;;;;;;7.80;5.83;;;19.10;53.00;;;;;;10542463;28;20219;-77
2021/03/31 18:04:05;;;;;;;5.30;4.80;;;19.00;53.30;;;;;;10506123;28;20222;-77
2021/03/31 18:09:08;;;;;;;6.70;5.03;;;18.80;53.40;;;;;;10536385;28;20277;-77
2021/03/31 18:14:10;;;;;;;5.07;4.57;;;18.70;53.40;;;;;;10538672;28;20257;-77
2021/03/31 18:19:13;;;;;;;5.17;4.10;;;18.60;53.40;;;;;;10533298;28;20215;-79
2021/03/31 18:24:15;;;;;;;5.27;4.70;;;18.50;53.40;;;;;;10522170;28;20282;-78
2021/03/31 18:29:17;;;;;;;19.50;13.67;;;18.30;53.30;;;;;;10515341;28;20592;-77
2021/03/31 18:34:19;;;;;;;19.47;13.03;;;18.20;53.40;;;;;;10540511;28;20191;-77
2021/03/31 18:39:21;;;;;;;21.93;12.87;;;18.00;53.40;;;;;;10513314;28;20273;-78
2021/03/31 18:44:23;;;;;;;9.73;7.80;;;17.90;53.40;;;;;;10526824;28;20677;-77
2021/03/31 18:49:25;;;;;;;7.83;6.80;;;17.90;54.00;;;;;;10516775;28;20220;-77
2021/03/31 18:54:27;;;;;;;9.57;5.93;;;17.70;53.70;;;;;;10533604;28;20264;-77
2021/03/31 18:59:29;;;;;;;8.30;6.27;;;17.60;54.00;;;;;;10498705;28;20223;-76
2021/03/31 19:04:31;;;;;;;7.00;5.60;;;17.50;53.90;;;;;;10516258;28;20204;-77
2021/03/31 19:14:56;;;;;;;6.10;4.83;;;17.30;54.40;;;;;;10530881;28;20198;-77
2021/03/31 19:19:59;;;;;;;7.40;6.20;;;17.20;55.00;;;;;;10541344;28;20211;-77
2021/03/31 19:25:01;;;;;;;7.70;6.40;;;17.10;55.50;;;;;;10518890;28;20208;-77
2021/03/31 19:30:05;;;;;;;5.93;5.20;;;17.00;54.90;;;;;;10527820;28;20263;-77
2021/03/31 19:35:09;;;;;;;7.20;5.90;;;16.90;55.20;;;;;;10523809;28;20195;-76
2021/03/31 19:40:12;;;;;;;6.60;5.03;;;16.90;54.90;;;;;;10492191;28;20231;-76
2021/03/31 19:45:14;;;;;;;5.63;4.97;;;16.80;54.80;;;;;;10513590;28;20226;-77
2021/03/31 19:50:21;;;;;;;6.70;6.10;;;16.70;55.20;;;;;;10529558;28;20268;-76
2021/03/31 19:55:23;;;;;;;7.40;5.10;;;16.70;55.50;;;;;;10503315;28;20187;-77
2021/03/31 20:00:27;;;;;;;7.87;5.83;;;16.60;55.80;;;;;;10530369;28;20699;-77
2021/03/31 20:05:29;;;;;;;9.40;6.70;;;16.50;55.90;;;;;;10515737;28;20227;-77
2021/03/31 20:10:31;;;;;;;11.90;9.47;;;16.40;55.90;;;;;;10530492;28;20254;-77
2021/03/31 20:15:33;;;;;;;5.57;5.07;;;16.40;56.50;;;;;;10521385;28;21044;-77
2021/03/31 20:20:35;;;;;;;7.20;5.13;;;16.30;56.20;;;;;;10526994;28;20741;-77
2021/03/31 20:25:37;;;;;;;5.50;4.80;;;16.20;56.20;;;;;;10527280;28;20254;-77
2021/03/31 20:30:39;;;;;;;9.20;7.20;;;16.20;56.00;;;;;;10530123;28;20734;-77
2021/03/31 20:35:41;;;;;;;10.07;6.53;;;16.10;56.00;;;;;;10531688;28;20263;-77
2021/03/31 20:40:43;;;;;;;7.50;5.80;;;16.10;56.30;;;;;;10533968;28;20216;-77
2021/03/31 20:45:45;;;;;;;8.50;5.87;;;16.10;56.90;;;;;;10530724;28;20208;-77
2021/03/31 20:50:48;;;;;;;8.40;6.33;;;16.00;57.20;;;;;;10505738;28;20213;-77
2021/03/31 20:55:49;;;;;;;6.53;5.40;;;15.90;57.50;;;;;;10500310;28;20192;-77
2021/03/31 21:00:51;;;;;;;8.47;5.73;;;15.90;57.90;;;;;;10497535;28;20208;-77
2021/03/31 21:05:54;;;;;;;8.23;5.60;;;15.80;57.30;;;;;;10507638;28;20204;-77
2021/03/31 21:10:55;;;;;;;8.93;5.23;;;15.80;58.00;;;;;;10538936;28;20623;-77
2021/03/31 21:15:57;;;;;;;6.03;5.43;;;15.80;58.00;;;;;;10524012;28;20614;-77
2021/03/31 21:20:59;;;;;;;6.30;4.50;;;15.60;58.40;;;;;;10506734;28;20749;-76
2021/03/31 21:26:01;;;;;;;9.03;4.77;;;15.60;58.20;;;;;;10514241;28;20805;-76
2021/03/31 21:31:03;;;;;;;5.90;4.97;;;15.50;58.70;;;;;;10520685;28;20224;-76
2021/03/31 21:36:06;;;;;;;6.67;4.80;;;15.50;58.60;;;;;;10512201;28;20245;-77
2021/03/31 21:41:08;;;;;;;9.10;5.77;;;15.50;58.70;;;;;;10535784;28;20223;-77
2021/03/31 21:46:10;;;;;;;5.87;4.57;;;15.40;58.70;;;;;;10536964;28;20200;-76
2021/03/31 21:51:12;;;;;;;5.83;4.80;;;15.30;59.10;;;;;;10534299;28;20695;-77
2021/03/31 21:56:14;;;;;;;6.27;5.00;;;15.30;58.70;;;;;;10534366;28;20309;-77
2021/03/31 22:01:16;;;;;;;7.40;4.63;;;15.20;58.80;;;;;;10535357;28;20226;-77
2021/03/31 22:06:19;;;;;;;5.23;3.80;;;15.10;58.70;;;;;;10553010;28;20748;-77
2021/03/31 22:11:21;;;;;;;5.27;3.63;;;15.00;59.30;;;;;;10536857;28;20255;-76
2021/03/31 22:16:23;;;;;;;9.83;5.10;;;14.90;59.00;;;;;;10537176;28;20679;-77
2021/03/31 22:21:30;;;;;;;6.53;4.50;;;14.90;58.60;;;;;;10538096;28;20218;-77
2021/03/31 22:26:33;;;;;;;5.70;4.00;;;14.90;59.00;;;;;;10537090;28;20655;-77
2021/03/31 22:31:34;;;;;;;6.83;5.27;;;14.90;59.00;;;;;;10537193;28;20585;-77
2021/03/31 22:36:37;;;;;;;7.73;5.47;;;14.80;59.70;;;;;;10537192;28;20231;-77
2021/03/31 22:41:39;;;;;;;7.80;5.30;;;14.80;59.70;;;;;;10531875;28;20372;-77
2021/03/31 22:46:40;;;;;;;11.00;4.93;;;14.80;59.60;;;;;;10529214;28;20299;-76
2021/03/31 22:51:43;;;;;;;13.70;5.00;;;14.70;60.80;;;;;;10537016;28;20314;-76
2021/03/31 22:56:45;;;;;;;7.03;5.20;;;14.60;60.30;;;;;;10536674;28;20200;-77
2021/03/31 23:01:47;;;;;;;6.10;5.07;;;14.50;60.70;;;;;;10536989;28;20234;-76
2021/03/31 23:06:50;;;;;;;5.83;5.07;;;14.50;60.60;;;;;;10561952;28;20572;-77
2021/03/31 23:11:51;;;;;;;7.40;5.57;;;14.40;60.60;;;;;;10578224;28;20210;-77
2021/03/31 23:16:54;;;;;;;4.60;4.20;;;14.30;61.10;;;;;;10578296;28;20226;-77
2021/03/31 23:21:56;;;;;;;4.43;4.03;;;14.30;60.90;;;;;;10578838;28;20242;-77
2021/03/31 23:26:58;;;;;;;8.67;5.40;;;14.30;60.80;;;;;;10560052;28;20581;-77
2021/03/31 23:32:00;;;;;;;7.83;5.00;;;14.20;60.70;;;;;;10523499;28;20234;-77
2021/03/31 23:37:02;;;;;;;5.57;4.43;;;14.20;60.40;;;;;;10535263;28;20203;-77
2021/03/31 23:42:05;;;;;;;5.10;4.60;;;14.20;61.40;;;;;;10518545;28;20593;-77
2021/03/31 23:47:07;;;;;;;5.03;4.50;;;14.10;61.30;;;;;;10536057;28;20188;-77
2021/03/31 23:52:09;;;;;;;4.87;4.20;;;14.10;61.10;;;;;;10529723;28;20231;-77
2021/03/31 23:57:11;;;;;;;5.83;5.10;;;14.00;61.60;;;;;;10535557;28;20253;-77
